sensor_id;sensor_type;location;lat;lon;timestamp;temperature;humidity
451;DHT22;212;48.748;9.174;2022-09-09T00:00:53;14.80;1.00
451;DHT22;212;48.748;9.174;2022-09-09T00:03:25;14.80;1.00
451;DHT22;212;48.748;9.174;2022-09-09T00:05:58;14.80;1.00
451;DHT22;212;48.748;9.174;2022-09-09T00:08:35;14.70;1.00
451;DHT22;212;48.748;9.174;2022-09-09T00:11:05;14.70;1.00
451;DHT22;212;48.748;9.174;2022-09-09T00:13:37;14.60;1.00
451;DHT22;212;48.748;9.174;2022-09-09T00:16:13;14.70;1.00
451;DHT22;212;48.748;9.174;2022-09-09T00:18:51;14.70;1.00
451;DHT22;212;48.748;9.174;2022-09-09T00:21:22;14.70;1.00
451;DHT22;212;48.748;9.174;2022-09-09T00:23:53;14.80;1.00
451;DHT22;212;48.748;9.174;2022-09-09T00:26:24;14.80;1.00
451;DHT22;212;48.748;9.174;2022-09-09T00:29:05;14.80;1.00
451;DHT22;212;48.748;9.174;2022-09-09T00:31:36;14.80;1.00
451;DHT22;212;48.748;9.174;2022-09-09T00:34:12;14.90;1.00
451;DHT22;212;48.748;9.174;2022-09-09T00:36:39;15.00;1.00
451;DHT22;212;48.748;9.174;2022-09-09T00:39:12;15.00;1.00
451;DHT22;212;48.748;9.174;2022-09-09T00:41:50;15.10;1.00
451;DHT22;212;48.748;9.174;2022-09-09T00:44:30;15.20;1.00
451;DHT22;212;48.748;9.174;2022-09-09T00:47:11;15.30;1.00
451;DHT22;212;48.748;9.174;2022-09-09T00:49:48;15.30;1.00
451;DHT22;212;48.748;9.174;2022-09-09T00:52:27;15.40;1.00
451;DHT22;212;48.748;9.174;2022-09-09T00:55:03;15.40;1.00
451;DHT22;212;48.748;9.174;2022-09-09T00:57:32;15.50;1.00
451;DHT22;212;48.748;9.174;2022-09-09T01:00:16;15.40;1.00
451;DHT22;212;48.748;9.174;2022-09-09T01:02:55;15.40;1.00
451;DHT22;212;48.748;9.174;2022-09-09T01:05:30;15.40;1.00
451;DHT22;212;48.748;9.174;2022-09-09T01:08:01;15.50;1.00
451;DHT22;212;48.748;9.174;2022-09-09T01:10:36;15.50;1.00
451;DHT22;212;48.748;9.174;2022-09-09T01:13:13;15.50;1.00
451;DHT22;212;48.748;9.174;2022-09-09T01:15:44;15.50;1.00
451;DHT22;212;48.748;9.174;2022-09-09T01:18:14;15.40;1.00
451;DHT22;212;48.748;9.174;2022-09-09T01:20:49;15.40;1.00
451;DHT22;212;48.748;9.174;2022-09-09T01:23:42;15.40;1.00
451;DHT22;212;48.748;9.174;2022-09-09T01:26:19;15.40;1.00
451;DHT22;212;48.748;9.174;2022-09-09T01:28:49;15.30;1.00
451;DHT22;212;48.748;9.174;2022-09-09T01:31:20;15.30;1.00
451;DHT22;212;48.748;9.174;2022-09-09T01:33:48;15.20;1.00
451;DHT22;212;48.748;9.174;2022-09-09T01:36:20;15.30;1.00
451;DHT22;212;48.748;9.174;2022-09-09T01:38:48;15.30;1.00
451;DHT22;212;48.748;9.174;2022-09-09T01:41:14;15.30;1.00
451;DHT22;212;48.748;9.174;2022-09-09T01:43:43;15.30;1.00
451;DHT22;212;48.748;9.174;2022-09-09T01:46:09;15.30;1.00
451;DHT22;212;48.748;9.174;2022-09-09T01:48:37;15.30;1.00
451;DHT22;212;48.748;9.174;2022-09-09T01:51:04;15.30;1.00
451;DHT22;212;48.748;9.174;2022-09-09T01:53:31;15.30;1.00
451;DHT22;212;48.748;9.174;2022-09-09T01:56:04;15.30;1.00
451;DHT22;212;48.748;9.174;2022-09-09T01:58:41;15.30;1.00
451;DHT22;212;48.748;9.174;2022-09-09T02:01:19;15.40;1.00
451;DHT22;212;48.748;9.174;2022-09-09T02:03:52;15.40;1.00
451;DHT22;212;48.748;9.174;2022-09-09T02:06:26;15.50;1.00
451;DHT22;212;48.748;9.174;2022-09-09T02:08:56;15.60;1.00
451;DHT22;212;48.748;9.174;2022-09-09T02:11:26;15.60;1.00
451;DHT22;212;48.748;9.174;2022-09-09T02:13:56;15.60;1.00
451;DHT22;212;48.748;9.174;2022-09-09T02:16:29;15.60;1.00
451;DHT22;212;48.748;9.174;2022-09-09T02:19:00;15.50;1.00
451;DHT22;212;48.748;9.174;2022-09-09T02:21:34;15.40;1.00
451;DHT22;212;48.748;9.174;2022-09-09T02:24:04;15.40;1.00
451;DHT22;212;48.748;9.174;2022-09-09T02:26:34;15.30;1.00
451;DHT22;212;48.748;9.174;2022-09-09T02:29:05;15.20;1.00
451;DHT22;212;48.748;9.174;2022-09-09T02:31:34;15.20;1.00
451;DHT22;212;48.748;9.174;2022-09-09T02:34:03;15.20;1.00
451;DHT22;212;48.748;9.174;2022-09-09T02:36:33;15.20;1.00
451;DHT22;212;48.748;9.174;2022-09-09T02:39:02;15.30;1.00
451;DHT22;212;48.748;9.174;2022-09-09T02:41:32;15.40;1.00
451;DHT22;212;48.748;9.174;2022-09-09T02:43:59;15.50;1.00
451;DHT22;212;48.748;9.174;2022-09-09T02:46:40;15.50;1.00
451;DHT22;212;48.748;9.174;2022-09-09T02:49:18;15.50;1.00
451;DHT22;212;48.748;9.174;2022-09-09T02:51:51;15.50;1.00
451;DHT22;212;48.748;9.174;2022-09-09T02:54:27;15.50;1.00
451;DHT22;212;48.748;9.174;2022-09-09T02:57:01;15.50;1.00
451;DHT22;212;48.748;9.174;2022-09-09T02:59:30;15.50;1.00
451;DHT22;212;48.748;9.174;2022-09-09T03:01:58;15.50;1.00
451;DHT22;212;48.748;9.174;2022-09-09T03:04:25;15.50;1.00
451;DHT22;212;48.748;9.174;2022-09-09T03:06:52;15.50;1.00
451;DHT22;212;48.748;9.174;2022-09-09T03:09:18;15.40;1.00
451;DHT22;212;48.748;9.174;2022-09-09T03:11:45;15.50;1.00
451;DHT22;212;48.748;9.174;2022-09-09T03:14:12;15.50;1.00
451;DHT22;212;48.748;9.174;2022-09-09T03:16:39;15.60;1.00
451;DHT22;212;48.748;9.174;2022-09-09T03:19:07;15.60;1.00
451;DHT22;212;48.748;9.174;2022-09-09T03:21:33;15.50;1.00
451;DHT22;212;48.748;9.174;2022-09-09T03:24:01;15.50;1.00
451;DHT22;212;48.748;9.174;2022-09-09T03:26:29;15.40;1.00
451;DHT22;212;48.748;9.174;2022-09-09T03:28:55;15.30;1.00
451;DHT22;212;48.748;9.174;2022-09-09T03:31:22;15.20;1.00
451;DHT22;212;48.748;9.174;2022-09-09T03:33:49;15.00;1.00
451;DHT22;212;48.748;9.174;2022-09-09T03:36:17;14.70;1.00
451;DHT22;212;48.748;9.174;2022-09-09T03:38:44;14.70;1.00
451;DHT22;212;48.748;9.174;2022-09-09T03:41:10;14.70;1.00
451;DHT22;212;48.748;9.174;2022-09-09T03:43:38;14.60;1.00
451;DHT22;212;48.748;9.174;2022-09-09T03:46:05;14.60;1.00
451;DHT22;212;48.748;9.174;2022-09-09T03:48:32;14.60;1.00
451;DHT22;212;48.748;9.174;2022-09-09T03:50:58;14.50;1.00
451;DHT22;212;48.748;9.174;2022-09-09T03:53:28;14.50;1.00
451;DHT22;212;48.748;9.174;2022-09-09T03:55:56;14.60;1.00
451;DHT22;212;48.748;9.174;2022-09-09T03:58:26;14.60;1.00
451;DHT22;212;48.748;9.174;2022-09-09T04:00:54;14.60;1.00
451;DHT22;212;48.748;9.174;2022-09-09T04:03:21;14.60;1.00
451;DHT22;212;48.748;9.174;2022-09-09T04:05:50;14.50;1.00
451;DHT22;212;48.748;9.174;2022-09-09T04:08:16;14.30;1.00
451;DHT22;212;48.748;9.174;2022-09-09T04:10:46;14.30;1.00
451;DHT22;212;48.748;9.174;2022-09-09T04:13:14;14.20;1.00
451;DHT22;212;48.748;9.174;2022-09-09T04:15:42;14.10;1.00
451;DHT22;212;48.748;9.174;2022-09-09T04:18:08;14.10;1.00
451;DHT22;212;48.748;9.174;2022-09-09T04:20:35;14.10;1.00
451;DHT22;212;48.748;9.174;2022-09-09T04:23:02;14.10;1.00
451;DHT22;212;48.748;9.174;2022-09-09T04:25:29;14.10;1.00
451;DHT22;212;48.748;9.174;2022-09-09T04:27:57;14.00;1.00
451;DHT22;212;48.748;9.174;2022-09-09T04:30:25;14.00;1.00
451;DHT22;212;48.748;9.174;2022-09-09T04:32:53;14.00;1.00
451;DHT22;212;48.748;9.174;2022-09-09T04:35:19;14.00;1.00
451;DHT22;212;48.748;9.174;2022-09-09T04:37:46;14.10;1.00
451;DHT22;212;48.748;9.174;2022-09-09T04:40:14;14.10;1.00
451;DHT22;212;48.748;9.174;2022-09-09T04:42:40;14.20;1.00
451;DHT22;212;48.748;9.174;2022-09-09T04:45:10;14.20;1.00
451;DHT22;212;48.748;9.174;2022-09-09T04:47:38;14.20;1.00
451;DHT22;212;48.748;9.174;2022-09-09T04:50:07;14.30;1.00
451;DHT22;212;48.748;9.174;2022-09-09T04:52:34;14.30;1.00
451;DHT22;212;48.748;9.174;2022-09-09T04:55:00;14.40;1.00
451;DHT22;212;48.748;9.174;2022-09-09T04:57:27;14.40;1.00
451;DHT22;212;48.748;9.174;2022-09-09T04:59:54;14.50;1.00
451;DHT22;212;48.748;9.174;2022-09-09T05:02:22;14.50;1.00
451;DHT22;212;48.748;9.174;2022-09-09T05:04:48;14.50;1.00
451;DHT22;212;48.748;9.174;2022-09-09T05:07:16;14.60;1.00
451;DHT22;212;48.748;9.174;2022-09-09T05:09:42;14.60;1.00
451;DHT22;212;48.748;9.174;2022-09-09T05:12:10;14.60;1.00
451;DHT22;212;48.748;9.174;2022-09-09T05:14:37;14.70;1.00
451;DHT22;212;48.748;9.174;2022-09-09T05:17:04;14.70;1.00
451;DHT22;212;48.748;9.174;2022-09-09T05:19:32;14.80;1.00
451;DHT22;212;48.748;9.174;2022-09-09T05:21:59;14.80;1.00
451;DHT22;212;48.748;9.174;2022-09-09T05:24:26;15.00;1.00
451;DHT22;212;48.748;9.174;2022-09-09T05:26:53;15.10;1.00
451;DHT22;212;48.748;9.174;2022-09-09T05:29:24;15.10;1.00
451;DHT22;212;48.748;9.174;2022-09-09T05:31:52;15.40;1.00
451;DHT22;212;48.748;9.174;2022-09-09T05:34:18;16.30;1.00
451;DHT22;212;48.748;9.174;2022-09-09T05:36:47;17.10;1.00
451;DHT22;212;48.748;9.174;2022-09-09T05:39:14;17.40;1.00
451;DHT22;212;48.748;9.174;2022-09-09T05:41:40;17.30;1.00
451;DHT22;212;48.748;9.174;2022-09-09T05:44:07;17.20;1.00
451;DHT22;212;48.748;9.174;2022-09-09T05:46:34;17.10;1.00
451;DHT22;212;48.748;9.174;2022-09-09T05:49:02;17.00;1.00
451;DHT22;212;48.748;9.174;2022-09-09T05:51:31;16.70;1.00
451;DHT22;212;48.748;9.174;2022-09-09T05:53:59;16.60;1.00
451;DHT22;212;48.748;9.174;2022-09-09T05:56:27;16.40;1.00
451;DHT22;212;48.748;9.174;2022-09-09T05:58:55;16.20;1.00
451;DHT22;212;48.748;9.174;2022-09-09T06:01:23;16.20;1.00
451;DHT22;212;48.748;9.174;2022-09-09T06:03:51;16.20;1.00
451;DHT22;212;48.748;9.174;2022-09-09T06:06:19;16.20;1.00
451;DHT22;212;48.748;9.174;2022-09-09T06:08:47;16.10;1.00
451;DHT22;212;48.748;9.174;2022-09-09T06:11:18;16.10;1.00
451;DHT22;212;48.748;9.174;2022-09-09T06:13:45;16.00;1.00
451;DHT22;212;48.748;9.174;2022-09-09T06:16:15;16.10;1.00
451;DHT22;212;48.748;9.174;2022-09-09T06:18:42;16.10;1.00
451;DHT22;212;48.748;9.174;2022-09-09T06:21:12;16.00;1.00
451;DHT22;212;48.748;9.174;2022-09-09T06:23:40;16.00;1.00
451;DHT22;212;48.748;9.174;2022-09-09T06:26:10;16.00;1.00
451;DHT22;212;48.748;9.174;2022-09-09T06:28:38;16.00;1.00
451;DHT22;212;48.748;9.174;2022-09-09T06:31:07;16.10;1.00
451;DHT22;212;48.748;9.174;2022-09-09T06:33:36;16.10;1.00
451;DHT22;212;48.748;9.174;2022-09-09T06:36:05;16.10;1.00
451;DHT22;212;48.748;9.174;2022-09-09T06:38:32;16.30;1.00
451;DHT22;212;48.748;9.174;2022-09-09T06:40:59;16.20;1.00
451;DHT22;212;48.748;9.174;2022-09-09T06:43:27;16.30;1.00
451;DHT22;212;48.748;9.174;2022-09-09T06:45:57;16.50;1.00
451;DHT22;212;48.748;9.174;2022-09-09T06:48:24;16.60;1.00
451;DHT22;212;48.748;9.174;2022-09-09T06:51:00;16.80;1.00
451;DHT22;212;48.748;9.174;2022-09-09T06:53:27;17.00;1.00
451;DHT22;212;48.748;9.174;2022-09-09T06:55:54;17.20;1.00
451;DHT22;212;48.748;9.174;2022-09-09T06:58:21;17.50;1.00
451;DHT22;212;48.748;9.174;2022-09-09T07:00:48;17.60;1.00
451;DHT22;212;48.748;9.174;2022-09-09T07:03:17;17.70;1.00
451;DHT22;212;48.748;9.174;2022-09-09T07:05:43;17.90;1.00
451;DHT22;212;48.748;9.174;2022-09-09T07:08:19;18.10;1.00
451;DHT22;212;48.748;9.174;2022-09-09T07:10:46;18.10;1.00
451;DHT22;212;48.748;9.174;2022-09-09T07:13:13;18.00;1.00
451;DHT22;212;48.748;9.174;2022-09-09T07:15:41;18.30;1.00
451;DHT22;212;48.748;9.174;2022-09-09T07:18:08;18.50;1.00
451;DHT22;212;48.748;9.174;2022-09-09T07:20:36;18.80;1.00
451;DHT22;212;48.748;9.174;2022-09-09T07:23:03;19.10;1.00
451;DHT22;212;48.748;9.174;2022-09-09T07:25:30;19.60;1.00
451;DHT22;212;48.748;9.174;2022-09-09T07:27:57;20.70;1.00
451;DHT22;212;48.748;9.174;2022-09-09T07:30:23;22.30;1.00
451;DHT22;212;48.748;9.174;2022-09-09T07:32:51;24.10;1.00
451;DHT22;212;48.748;9.174;2022-09-09T07:35:18;24.50;1.00
451;DHT22;212;48.748;9.174;2022-09-09T07:37:46;24.00;1.00
451;DHT22;212;48.748;9.174;2022-09-09T07:40:13;23.50;1.00
451;DHT22;212;48.748;9.174;2022-09-09T07:42:40;24.00;1.00
451;DHT22;212;48.748;9.174;2022-09-09T07:45:07;26.40;1.00
451;DHT22;212;48.748;9.174;2022-09-09T07:47:34;27.60;1.00
451;DHT22;212;48.748;9.174;2022-09-09T07:50:01;28.00;1.00
451;DHT22;212;48.748;9.174;2022-09-09T07:52:27;27.20;1.00
451;DHT22;212;48.748;9.174;2022-09-09T07:54:55;26.40;1.00
451;DHT22;212;48.748;9.174;2022-09-09T07:57:22;25.40;1.00
451;DHT22;212;48.748;9.174;2022-09-09T07:59:49;26.40;1.00
451;DHT22;212;48.748;9.174;2022-09-09T08:02:16;28.50;1.00
451;DHT22;212;48.748;9.174;2022-09-09T08:04:42;28.60;1.00
451;DHT22;212;48.748;9.174;2022-09-09T08:07:09;29.10;1.00
451;DHT22;212;48.748;9.174;2022-09-09T08:09:36;30.40;1.00
451;DHT22;212;48.748;9.174;2022-09-09T08:12:05;29.80;1.00
451;DHT22;212;48.748;9.174;2022-09-09T08:14:34;29.30;1.00
451;DHT22;212;48.748;9.174;2022-09-09T08:17:01;28.40;1.00
451;DHT22;212;48.748;9.174;2022-09-09T08:19:28;28.40;1.00
451;DHT22;212;48.748;9.174;2022-09-09T08:21:55;28.90;1.00
451;DHT22;212;48.748;9.174;2022-09-09T08:24:22;29.00;1.00
451;DHT22;212;48.748;9.174;2022-09-09T08:26:49;29.70;1.00
451;DHT22;212;48.748;9.174;2022-09-09T08:29:17;30.00;1.00
451;DHT22;212;48.748;9.174;2022-09-09T08:31:45;30.70;1.00
451;DHT22;212;48.748;9.174;2022-09-09T08:34:13;31.30;1.00
451;DHT22;212;48.748;9.174;2022-09-09T08:36:42;31.70;1.00
451;DHT22;212;48.748;9.174;2022-09-09T08:39:11;31.80;1.00
451;DHT22;212;48.748;9.174;2022-09-09T08:44:50;28.30;1.00
451;DHT22;212;48.748;9.174;2022-09-09T08:47:30;27.40;1.00
451;DHT22;212;48.748;9.174;2022-09-09T08:50:15;28.50;1.00
451;DHT22;212;48.748;9.174;2022-09-09T08:52:49;29.40;1.00
451;DHT22;212;48.748;9.174;2022-09-09T08:55:24;28.50;1.00
451;DHT22;212;48.748;9.174;2022-09-09T08:57:53;29.10;1.00
451;DHT22;212;48.748;9.174;2022-09-09T09:00:23;27.30;1.00
451;DHT22;212;48.748;9.174;2022-09-09T09:02:59;29.20;1.00
451;DHT22;212;48.748;9.174;2022-09-09T09:05:35;31.10;1.00
451;DHT22;212;48.748;9.174;2022-09-09T09:08:15;32.90;1.00
451;DHT22;212;48.748;9.174;2022-09-09T09:10:46;33.40;1.00
451;DHT22;212;48.748;9.174;2022-09-09T09:13:17;32.00;1.00
451;DHT22;212;48.748;9.174;2022-09-09T09:15:48;31.10;1.00
451;DHT22;212;48.748;9.174;2022-09-09T09:18:17;28.80;1.00
451;DHT22;212;48.748;9.174;2022-09-09T09:20:52;27.30;1.00
451;DHT22;212;48.748;9.174;2022-09-09T09:23:22;25.70;1.00
451;DHT22;212;48.748;9.174;2022-09-09T09:25:51;24.60;1.00
451;DHT22;212;48.748;9.174;2022-09-09T09:28:23;22.60;1.00
451;DHT22;212;48.748;9.174;2022-09-09T09:30:54;21.10;1.00
451;DHT22;212;48.748;9.174;2022-09-09T09:33:27;19.30;1.00
451;DHT22;212;48.748;9.174;2022-09-09T09:35:56;18.70;1.00
451;DHT22;212;48.748;9.174;2022-09-09T09:38:26;18.80;1.00
451;DHT22;212;48.748;9.174;2022-09-09T09:40:56;20.00;1.00
451;DHT22;212;48.748;9.174;2022-09-09T09:43:26;22.90;1.00
451;DHT22;212;48.748;9.174;2022-09-09T09:45:55;25.80;1.00
451;DHT22;212;48.748;9.174;2022-09-09T09:48:24;27.60;1.00
451;DHT22;212;48.748;9.174;2022-09-09T09:50:52;29.70;1.00
451;DHT22;212;48.748;9.174;2022-09-09T09:53:23;31.40;1.00
451;DHT22;212;48.748;9.174;2022-09-09T09:55:55;32.80;1.00
451;DHT22;212;48.748;9.174;2022-09-09T09:58:23;34.00;1.00
451;DHT22;212;48.748;9.174;2022-09-09T10:00:51;35.20;1.00
451;DHT22;212;48.748;9.174;2022-09-09T10:03:28;35.70;1.00
451;DHT22;212;48.748;9.174;2022-09-09T10:05:55;35.30;1.00
451;DHT22;212;48.748;9.174;2022-09-09T10:08:24;35.40;1.00
451;DHT22;212;48.748;9.174;2022-09-09T10:11:09;35.60;1.00
451;DHT22;212;48.748;9.174;2022-09-09T10:13:48;35.70;1.00
451;DHT22;212;48.748;9.174;2022-09-09T10:16:34;35.40;1.00
451;DHT22;212;48.748;9.174;2022-09-09T10:19:13;34.30;1.00
451;DHT22;212;48.748;9.174;2022-09-09T10:21:59;34.60;1.00
451;DHT22;212;48.748;9.174;2022-09-09T10:25:11;34.60;1.00
451;DHT22;212;48.748;9.174;2022-09-09T10:27:51;34.10;1.00
451;DHT22;212;48.748;9.174;2022-09-09T10:30:22;34.10;1.00
451;DHT22;212;48.748;9.174;2022-09-09T10:32:56;35.20;1.00
451;DHT22;212;48.748;9.174;2022-09-09T10:35:29;35.70;1.00
451;DHT22;212;48.748;9.174;2022-09-09T10:38:12;34.80;1.00
451;DHT22;212;48.748;9.174;2022-09-09T10:40:46;32.10;1.00
451;DHT22;212;48.748;9.174;2022-09-09T10:43:24;29.60;1.00
451;DHT22;212;48.748;9.174;2022-09-09T10:46:03;29.10;1.00
451;DHT22;212;48.748;9.174;2022-09-09T10:48:53;29.40;1.00
451;DHT22;212;48.748;9.174;2022-09-09T10:51:30;28.40;1.00
451;DHT22;212;48.748;9.174;2022-09-09T10:54:14;27.20;1.00
451;DHT22;212;48.748;9.174;2022-09-09T10:56:43;26.30;1.00
451;DHT22;212;48.748;9.174;2022-09-09T10:59:15;25.40;1.00
451;DHT22;212;48.748;9.174;2022-09-09T11:01:46;25.40;1.00
451;DHT22;212;48.748;9.174;2022-09-09T11:04:17;27.70;1.00
451;DHT22;212;48.748;9.174;2022-09-09T11:06:49;29.50;1.00
451;DHT22;212;48.748;9.174;2022-09-09T11:09:21;29.20;1.00
451;DHT22;212;48.748;9.174;2022-09-09T11:11:52;27.80;1.00
451;DHT22;212;48.748;9.174;2022-09-09T11:14:23;26.10;1.00
451;DHT22;212;48.748;9.174;2022-09-09T11:16:56;26.10;1.00
451;DHT22;212;48.748;9.174;2022-09-09T11:19:27;26.40;1.00
451;DHT22;212;48.748;9.174;2022-09-09T11:21:59;26.00;1.00
451;DHT22;212;48.748;9.174;2022-09-09T11:24:31;25.20;1.00
451;DHT22;212;48.748;9.174;2022-09-09T11:27:03;24.60;1.00
451;DHT22;212;48.748;9.174;2022-09-09T11:33:03;23.60;1.00
451;DHT22;212;48.748;9.174;2022-09-09T11:35:40;22.90;1.00
451;DHT22;212;48.748;9.174;2022-09-09T11:38:19;22.30;1.00
451;DHT22;212;48.748;9.174;2022-09-09T11:40:47;22.10;1.00
451;DHT22;212;48.748;9.174;2022-09-09T11:43:24;21.90;1.00
451;DHT22;212;48.748;9.174;2022-09-09T11:45:55;21.90;1.00
451;DHT22;212;48.748;9.174;2022-09-09T11:48:27;22.20;1.00
451;DHT22;212;48.748;9.174;2022-09-09T11:50:59;22.20;1.00
451;DHT22;212;48.748;9.174;2022-09-09T11:53:27;22.30;1.00
451;DHT22;212;48.748;9.174;2022-09-09T11:56:03;22.60;1.00
451;DHT22;212;48.748;9.174;2022-09-09T11:58:37;23.00;1.00
451;DHT22;212;48.748;9.174;2022-09-09T12:01:33;24.10;1.00
451;DHT22;212;48.748;9.174;2022-09-09T12:06:59;27.60;1.00
451;DHT22;212;48.748;9.174;2022-09-09T12:09:33;29.50;1.00
451;DHT22;212;48.748;9.174;2022-09-09T12:12:06;29.70;1.00
451;DHT22;212;48.748;9.174;2022-09-09T12:14:38;28.10;1.00
451;DHT22;212;48.748;9.174;2022-09-09T12:17:17;26.60;1.00
451;DHT22;212;48.748;9.174;2022-09-09T12:19:45;25.20;1.00
451;DHT22;212;48.748;9.174;2022-09-09T12:22:20;24.70;1.00
451;DHT22;212;48.748;9.174;2022-09-09T12:24:54;25.00;1.00
451;DHT22;212;48.748;9.174;2022-09-09T12:27:26;26.60;1.00
451;DHT22;212;48.748;9.174;2022-09-09T12:30:00;27.40;1.00
451;DHT22;212;48.748;9.174;2022-09-09T12:32:28;28.00;1.00
451;DHT22;212;48.748;9.174;2022-09-09T12:35:03;28.90;1.00
451;DHT22;212;48.748;9.174;2022-09-09T12:37:35;31.00;1.00
451;DHT22;212;48.748;9.174;2022-09-09T12:40:06;32.30;1.00
451;DHT22;212;48.748;9.174;2022-09-09T12:42:41;32.80;1.00
451;DHT22;212;48.748;9.174;2022-09-09T12:45:17;32.10;1.00
451;DHT22;212;48.748;9.174;2022-09-09T12:47:47;31.70;1.00
451;DHT22;212;48.748;9.174;2022-09-09T12:50:16;30.10;1.00
451;DHT22;212;48.748;9.174;2022-09-09T12:52:44;27.70;1.00
451;DHT22;212;48.748;9.174;2022-09-09T12:55:18;26.40;1.00
451;DHT22;212;48.748;9.174;2022-09-09T12:57:48;25.30;1.00
451;DHT22;212;48.748;9.174;2022-09-09T13:00:18;24.60;1.00
451;DHT22;212;48.748;9.174;2022-09-09T13:02:48;25.00;1.00
451;DHT22;212;48.748;9.174;2022-09-09T13:05:20;25.70;1.00
451;DHT22;212;48.748;9.174;2022-09-09T13:07:47;24.70;1.00
451;DHT22;212;48.748;9.174;2022-09-09T13:10:19;25.80;1.00
451;DHT22;212;48.748;9.174;2022-09-09T13:12:47;26.00;1.00
451;DHT22;212;48.748;9.174;2022-09-09T13:15:20;25.40;1.00
451;DHT22;212;48.748;9.174;2022-09-09T13:17:53;24.30;1.00
451;DHT22;212;48.748;9.174;2022-09-09T13:20:24;23.80;1.00
451;DHT22;212;48.748;9.174;2022-09-09T13:22:52;25.30;1.00
451;DHT22;212;48.748;9.174;2022-09-09T13:25:24;27.40;1.00
451;DHT22;212;48.748;9.174;2022-09-09T13:27:57;27.60;1.00
451;DHT22;212;48.748;9.174;2022-09-09T13:30:26;27.70;1.00
451;DHT22;212;48.748;9.174;2022-09-09T13:33:19;28.40;1.00
451;DHT22;212;48.748;9.174;2022-09-09T13:35:49;28.80;1.00
451;DHT22;212;48.748;9.174;2022-09-09T13:38:19;28.40;1.00
451;DHT22;212;48.748;9.174;2022-09-09T13:40:59;27.70;1.00
451;DHT22;212;48.748;9.174;2022-09-09T13:43:30;26.60;1.00
451;DHT22;212;48.748;9.174;2022-09-09T13:45:59;25.10;1.00
451;DHT22;212;48.748;9.174;2022-09-09T13:48:26;23.80;1.00
451;DHT22;212;48.748;9.174;2022-09-09T13:50:54;23.30;1.00
451;DHT22;212;48.748;9.174;2022-09-09T13:53:21;23.40;1.00
451;DHT22;212;48.748;9.174;2022-09-09T13:55:48;23.50;1.00
451;DHT22;212;48.748;9.174;2022-09-09T13:58:17;22.90;1.00
451;DHT22;212;48.748;9.174;2022-09-09T14:00:45;22.60;1.00
451;DHT22;212;48.748;9.174;2022-09-09T14:03:12;22.60;1.00
451;DHT22;212;48.748;9.174;2022-09-09T14:05:39;22.80;1.00
451;DHT22;212;48.748;9.174;2022-09-09T14:08:10;23.00;1.00
451;DHT22;212;48.748;9.174;2022-09-09T14:10:39;22.80;1.00
451;DHT22;212;48.748;9.174;2022-09-09T14:13:06;22.80;1.00
451;DHT22;212;48.748;9.174;2022-09-09T14:15:34;22.80;1.00
451;DHT22;212;48.748;9.174;2022-09-09T14:18:01;22.80;1.00
451;DHT22;212;48.748;9.174;2022-09-09T14:20:28;22.70;1.00
451;DHT22;212;48.748;9.174;2022-09-09T14:22:55;22.70;1.00
451;DHT22;212;48.748;9.174;2022-09-09T14:25:25;22.50;1.00
451;DHT22;212;48.748;9.174;2022-09-09T14:27:52;22.60;1.00
451;DHT22;212;48.748;9.174;2022-09-09T14:30:21;22.70;1.00
451;DHT22;212;48.748;9.174;2022-09-09T14:32:49;22.60;1.00
451;DHT22;212;48.748;9.174;2022-09-09T14:35:16;22.70;1.00
451;DHT22;212;48.748;9.174;2022-09-09T14:37:43;23.00;1.00
451;DHT22;212;48.748;9.174;2022-09-09T14:40:10;22.70;1.00
451;DHT22;212;48.748;9.174;2022-09-09T14:42:39;22.60;1.00
451;DHT22;212;48.748;9.174;2022-09-09T14:45:07;22.50;1.00
451;DHT22;212;48.748;9.174;2022-09-09T14:47:34;22.30;1.00
451;DHT22;212;48.748;9.174;2022-09-09T14:50:05;22.50;1.00
451;DHT22;212;48.748;9.174;2022-09-09T14:52:33;22.40;1.00
451;DHT22;212;48.748;9.174;2022-09-09T14:55:00;22.30;1.00
451;DHT22;212;48.748;9.174;2022-09-09T14:57:27;22.20;1.00
451;DHT22;212;48.748;9.174;2022-09-09T14:59:53;22.10;1.00
451;DHT22;212;48.748;9.174;2022-09-09T15:02:20;22.20;1.00
451;DHT22;212;48.748;9.174;2022-09-09T15:04:46;22.40;1.00
451;DHT22;212;48.748;9.174;2022-09-09T15:07:16;22.10;1.00
451;DHT22;212;48.748;9.174;2022-09-09T15:09:44;21.70;1.00
451;DHT22;212;48.748;9.174;2022-09-09T15:12:13;21.80;1.00
451;DHT22;212;48.748;9.174;2022-09-09T15:14:40;21.90;1.00
451;DHT22;212;48.748;9.174;2022-09-09T15:17:08;21.90;1.00
451;DHT22;212;48.748;9.174;2022-09-09T15:19:35;22.00;1.00
451;DHT22;212;48.748;9.174;2022-09-09T15:22:02;21.90;1.00
451;DHT22;212;48.748;9.174;2022-09-09T15:24:32;21.70;1.00
451;DHT22;212;48.748;9.174;2022-09-09T15:26:59;21.70;1.00
451;DHT22;212;48.748;9.174;2022-09-09T15:29:26;21.70;1.00
451;DHT22;212;48.748;9.174;2022-09-09T15:31:53;21.70;1.00
451;DHT22;212;48.748;9.174;2022-09-09T15:34:20;22.00;1.00
451;DHT22;212;48.748;9.174;2022-09-09T15:36:48;22.10;1.00
451;DHT22;212;48.748;9.174;2022-09-09T15:39:16;22.30;1.00
451;DHT22;212;48.748;9.174;2022-09-09T15:41:45;22.40;1.00
451;DHT22;212;48.748;9.174;2022-09-09T15:44:13;22.40;1.00
451;DHT22;212;48.748;9.174;2022-09-09T15:46:42;21.90;1.00
451;DHT22;212;48.748;9.174;2022-09-09T15:49:11;21.60;1.00
451;DHT22;212;48.748;9.174;2022-09-09T15:51:39;21.50;1.00
451;DHT22;212;48.748;9.174;2022-09-09T15:54:09;21.30;1.00
451;DHT22;212;48.748;9.174;2022-09-09T15:56:35;21.00;1.00
451;DHT22;212;48.748;9.174;2022-09-09T15:59:04;20.90;1.00
451;DHT22;212;48.748;9.174;2022-09-09T16:01:31;20.90;1.00
451;DHT22;212;48.748;9.174;2022-09-09T16:03:59;20.90;1.00
451;DHT22;212;48.748;9.174;2022-09-09T16:06:27;20.90;1.00
451;DHT22;212;48.748;9.174;2022-09-09T16:08:55;20.70;1.00
451;DHT22;212;48.748;9.174;2022-09-09T16:11:24;20.50;1.00
451;DHT22;212;48.748;9.174;2022-09-09T16:13:53;20.40;1.00
451;DHT22;212;48.748;9.174;2022-09-09T16:16:24;20.50;1.00
451;DHT22;212;48.748;9.174;2022-09-09T16:18:53;20.60;1.00
451;DHT22;212;48.748;9.174;2022-09-09T16:21:22;20.70;1.00
451;DHT22;212;48.748;9.174;2022-09-09T16:23:50;20.80;1.00
451;DHT22;212;48.748;9.174;2022-09-09T16:26:18;20.90;1.00
451;DHT22;212;48.748;9.174;2022-09-09T16:28:45;20.80;1.00
451;DHT22;212;48.748;9.174;2022-09-09T16:31:16;20.80;1.00
451;DHT22;212;48.748;9.174;2022-09-09T16:33:45;20.90;1.00
451;DHT22;212;48.748;9.174;2022-09-09T16:36:14;20.90;1.00
451;DHT22;212;48.748;9.174;2022-09-09T16:38:42;20.70;1.00
451;DHT22;212;48.748;9.174;2022-09-09T16:41:09;20.80;1.00
451;DHT22;212;48.748;9.174;2022-09-09T16:43:37;20.70;1.00
451;DHT22;212;48.748;9.174;2022-09-09T16:46:12;20.70;1.00
451;DHT22;212;48.748;9.174;2022-09-09T16:48:39;20.50;1.00
451;DHT22;212;48.748;9.174;2022-09-09T16:51:11;20.30;1.00
451;DHT22;212;48.748;9.174;2022-09-09T16:53:39;20.20;1.00
451;DHT22;212;48.748;9.174;2022-09-09T16:56:09;20.20;1.00
451;DHT22;212;48.748;9.174;2022-09-09T16:58:36;20.00;1.00
451;DHT22;212;48.748;9.174;2022-09-09T17:01:04;20.00;1.00
451;DHT22;212;48.748;9.174;2022-09-09T17:03:31;19.90;1.00
451;DHT22;212;48.748;9.174;2022-09-09T17:05:59;19.70;1.00
451;DHT22;212;48.748;9.174;2022-09-09T17:08:28;19.50;1.00
451;DHT22;212;48.748;9.174;2022-09-09T17:10:55;19.40;1.00
451;DHT22;212;48.748;9.174;2022-09-09T17:13:23;19.40;1.00
451;DHT22;212;48.748;9.174;2022-09-09T17:15:50;19.40;1.00
451;DHT22;212;48.748;9.174;2022-09-09T17:18:17;19.30;1.00
451;DHT22;212;48.748;9.174;2022-09-09T17:20:45;19.30;1.00